createdAt,value
2023-03-10T00:00:58.001Z,12.75
2023-03-10T00:03:28.844Z,15.57
2023-03-10T00:06:00.239Z,15.68
2023-03-10T00:08:31.042Z,13.52
2023-03-10T00:11:02.317Z,11.23
2023-03-10T00:16:07.579Z,14.70
2023-03-10T00:18:38.516Z,12.07
2023-03-10T00:21:09.812Z,10.60
2023-03-10T00:23:40.661Z,10.25
2023-03-10T00:26:15.022Z,13.23
2023-03-10T00:28:46.776Z,16.30
2023-03-10T00:31:25.589Z,14.98
2023-03-10T00:33:58.104Z,12.25
2023-03-10T00:36:31.617Z,14.57
2023-03-10T00:39:05.020Z,17.48
2023-03-10T00:41:39.320Z,12.95
2023-03-10T00:44:12.154Z,13.18
2023-03-10T00:46:46.634Z,15.52
2023-03-10T00:49:19.644Z,11.50
2023-03-10T00:51:51.074Z,15.57
2023-03-10T00:54:23.001Z,12.82
2023-03-10T00:56:54.280Z,10.75
2023-03-10T00:59:25.503Z,12.38
2023-03-10T01:01:59.282Z,14.43
2023-03-10T01:04:30.477Z,11.93
2023-03-10T01:07:01.692Z,13.18
2023-03-10T01:09:32.994Z,11.15
2023-03-10T01:12:04.094Z,9.52
2023-03-10T01:17:10.742Z,10.27
2023-03-10T01:19:41.615Z,10.98
2023-03-10T01:22:12.960Z,9.68
2023-03-10T01:29:45.309Z,12.73
2023-03-10T01:32:19.072Z,11.90
2023-03-10T01:34:50.123Z,17.13
2023-03-10T01:37:21.461Z,10.18
2023-03-10T01:39:52.236Z,9.27
2023-03-10T01:42:23.735Z,10.13
2023-03-10T01:45:11.305Z,9.70
2023-03-10T01:47:45.386Z,7.28
2023-03-10T01:50:19.028Z,7.32
2023-03-10T01:52:58.536Z,8.45
2023-03-10T01:55:34.223Z,14.45
2023-03-10T01:58:07.727Z,7.43
2023-03-10T02:00:39.716Z,7.28
2023-03-10T02:03:20.827Z,7.53
2023-03-10T02:05:59.160Z,9.20
2023-03-10T02:08:36.808Z,9.65
2023-03-10T02:11:08.548Z,12.90
2023-03-10T02:13:39.736Z,11.65
2023-03-10T02:18:46.920Z,12.23
2023-03-10T02:21:23.915Z,11.15
2023-03-10T02:24:01.990Z,11.55
2023-03-10T02:26:39.383Z,11.55
2023-03-10T02:29:17.442Z,9.32
2023-03-10T02:31:48.835Z,10.32
2023-03-10T02:34:20.325Z,9.18
2023-03-10T02:36:51.255Z,11.98
2023-03-10T02:39:23.231Z,11.20
2023-03-10T02:41:55.537Z,15.32
2023-03-10T02:44:30.407Z,10.82
2023-03-10T02:47:01.217Z,10.02
2023-03-10T02:49:32.891Z,10.60
2023-03-10T02:52:10.143Z,8.88
2023-03-10T02:54:41.306Z,11.20
2023-03-10T02:59:45.695Z,11.70
2023-03-10T03:02:16.671Z,11.80
2023-03-10T03:04:48.064Z,9.32
2023-03-10T03:07:18.920Z,11.63
2023-03-10T03:09:50.105Z,8.70
2023-03-10T03:14:54.485Z,7.75
2023-03-10T03:17:25.994Z,8.77
2023-03-10T03:19:57.404Z,10.88
2023-03-10T03:25:00.025Z,8.23
2023-03-10T03:27:30.876Z,6.88
2023-03-10T03:30:04.745Z,7.40
2023-03-10T03:32:35.925Z,9.93
2023-03-10T03:35:13.375Z,9.38
2023-03-10T03:37:44.292Z,8.63
2023-03-10T03:40:17.538Z,10.60
2023-03-10T03:42:52.296Z,9.88
2023-03-10T03:45:28.712Z,7.53
2023-03-10T03:48:00.685Z,11.40
2023-03-10T03:50:34.937Z,9.55
2023-03-10T03:53:11.911Z,8.32
2023-03-10T03:55:43.250Z,8.45
2023-03-10T03:58:14.377Z,7.43
2023-03-10T04:00:50.430Z,7.60
2023-03-10T04:03:22.724Z,8.15
2023-03-10T04:05:54.199Z,7.65
2023-03-10T04:08:26.292Z,11.73
2023-03-10T04:10:58.971Z,10.45
2023-03-10T04:13:32.305Z,7.35
2023-03-10T04:16:06.289Z,10.13
2023-03-10T04:18:40.242Z,7.47
2023-03-10T04:21:14.310Z,6.60
2023-03-10T04:23:45.757Z,9.30
2023-03-10T04:26:21.136Z,9.68
2023-03-10T04:28:52.051Z,7.05
2023-03-10T04:31:28.079Z,8.43
2023-03-10T04:33:59.512Z,8.48
2023-03-10T04:36:31.462Z,8.63
2023-03-10T04:39:05.301Z,11.48
2023-03-10T04:41:37.110Z,10.63
2023-03-10T04:44:17.636Z,11.38
2023-03-10T04:46:59.432Z,12.55
2023-03-10T04:49:30.647Z,23.88
2023-03-10T04:52:03.029Z,7.38
2023-03-10T04:54:34.142Z,12.55
2023-03-10T04:57:06.198Z,10.88
2023-03-10T04:59:38.027Z,9.55
2023-03-10T05:02:12.270Z,10.02
2023-03-10T05:04:44.428Z,12.60
2023-03-10T05:07:16.712Z,10.50
2023-03-10T05:09:50.958Z,10.02
2023-03-10T05:12:22.910Z,12.55
2023-03-10T05:14:53.990Z,18.42
2023-03-10T05:17:28.771Z,36.83
2023-03-10T05:20:00.691Z,63.88
2023-03-10T05:22:32.642Z,18.73
2023-03-10T05:25:04.023Z,9.05
2023-03-10T05:27:36.108Z,7.05
2023-03-10T05:30:08.543Z,16.65
2023-03-10T05:32:44.116Z,12.73
2023-03-10T05:35:16.583Z,16.10
2023-03-10T05:37:49.830Z,57.60
2023-03-10T05:40:22.760Z,21.45
2023-03-10T05:42:55.139Z,17.85
2023-03-10T05:45:27.997Z,9.98
2023-03-10T05:48:02.623Z,14.88
2023-03-10T05:50:34.300Z,15.13
2023-03-10T05:53:06.684Z,41.10
2023-03-10T05:55:37.808Z,18.08
2023-03-10T05:58:10.229Z,16.55
2023-03-10T06:00:41.128Z,15.73
2023-03-10T06:03:15.989Z,14.40
2023-03-10T06:05:47.434Z,19.25
2023-03-10T06:08:19.211Z,54.03
2023-03-10T06:10:50.138Z,30.60
2023-03-10T06:13:22.608Z,40.13
2023-03-10T06:15:54.310Z,25.50
2023-03-10T06:18:28.899Z,20.98
2023-03-10T06:21:01.562Z,33.90
2023-03-10T06:23:33.668Z,27.15
2023-03-10T06:26:07.142Z,20.80
2023-03-10T06:28:41.511Z,18.23
2023-03-10T06:31:16.228Z,16.45
2023-03-10T06:33:50.506Z,19.02
2023-03-10T06:36:21.956Z,20.90
2023-03-10T06:38:54.211Z,25.02
2023-03-10T06:41:25.842Z,27.10
2023-03-10T06:43:57.575Z,15.25
2023-03-10T06:46:29.329Z,19.35
2023-03-10T06:49:07.171Z,19.13
2023-03-10T06:51:38.720Z,15.20
2023-03-10T06:54:10.893Z,24.70
2023-03-10T06:56:42.338Z,25.95
2023-03-10T06:59:14.263Z,18.95
2023-03-10T07:01:45.885Z,17.77
2023-03-10T07:04:20.532Z,15.38
2023-03-10T07:06:51.601Z,22.00
2023-03-10T07:09:23.604Z,22.20
2023-03-10T07:11:54.687Z,26.27
2023-03-10T07:14:26.181Z,36.40
2023-03-10T07:16:58.049Z,36.72
2023-03-10T07:19:31.841Z,33.15
2023-03-10T07:22:04.664Z,35.28
2023-03-10T07:24:36.821Z,20.40
2023-03-10T07:27:08.729Z,20.50
2023-03-10T07:29:40.662Z,19.30
2023-03-10T07:32:11.899Z,19.10
2023-03-10T07:34:46.303Z,20.23
2023-03-10T07:37:18.002Z,20.38
2023-03-10T07:39:49.552Z,19.00
2023-03-10T07:42:20.969Z,14.80
2023-03-10T07:44:52.814Z,17.25
2023-03-10T07:47:24.266Z,15.88
2023-03-10T07:49:58.495Z,13.52
2023-03-10T07:52:32.584Z,18.85
2023-03-10T07:55:04.323Z,14.38
2023-03-10T07:57:35.664Z,18.20
2023-03-10T08:00:07.912Z,14.65
2023-03-10T08:02:45.098Z,12.35
2023-03-10T08:05:19.146Z,14.18
2023-03-10T08:07:50.036Z,14.23
2023-03-10T08:10:21.906Z,14.02
2023-03-10T08:12:52.971Z,12.02
2023-03-10T08:15:25.278Z,10.88
2023-03-10T08:17:56.181Z,14.90
2023-03-10T08:20:32.441Z,16.02
2023-03-10T08:23:04.153Z,15.70
2023-03-10T08:25:35.556Z,20.55
2023-03-10T08:28:07.146Z,15.35
2023-03-10T08:30:45.867Z,21.92
2023-03-10T08:33:24.666Z,30.15
2023-03-10T08:36:12.922Z,20.38
2023-03-10T08:38:44.082Z,26.63
2023-03-10T08:41:17.462Z,14.10
2023-03-10T08:43:49.535Z,18.27
2023-03-10T08:46:23.113Z,22.50
2023-03-10T08:48:54.197Z,14.27
2023-03-10T08:51:28.744Z,17.38
2023-03-10T08:54:00.527Z,16.25
2023-03-10T08:56:31.716Z,22.10
2023-03-10T09:01:35.883Z,15.98
2023-03-10T09:04:08.867Z,14.50
2023-03-10T09:06:42.980Z,17.52
2023-03-10T09:09:14.854Z,15.98
2023-03-10T09:11:46.603Z,16.33
2023-03-10T09:14:19.048Z,18.25
2023-03-10T09:16:50.260Z,15.10
2023-03-10T09:21:55.691Z,20.95
2023-03-10T09:24:26.434Z,20.48
2023-03-10T09:26:58.492Z,20.83
2023-03-10T09:29:42.596Z,16.98
2023-03-10T09:32:14.716Z,20.00
2023-03-10T09:34:45.851Z,17.17
2023-03-10T09:37:19.991Z,18.80
2023-03-10T09:39:51.308Z,21.33
2023-03-10T09:42:38.917Z,22.10
2023-03-10T09:45:29.646Z,18.38
2023-03-10T09:50:41.875Z,18.17
2023-03-10T09:53:41.899Z,19.92
2023-03-10T09:56:18.716Z,37.55
2023-03-10T09:58:53.318Z,18.95
2023-03-10T10:01:26.608Z,21.50
2023-03-10T10:04:01.456Z,16.88
2023-03-10T10:06:36.607Z,18.90
2023-03-10T10:09:18.091Z,19.08
2023-03-10T10:11:48.882Z,20.20
2023-03-10T10:14:29.506Z,17.38
2023-03-10T10:19:41.268Z,18.17
2023-03-10T10:22:18.277Z,20.27
2023-03-10T10:25:12.540Z,18.48
2023-03-10T10:27:45.770Z,23.85
2023-03-10T10:30:33.608Z,20.17
2023-03-10T10:33:06.104Z,32.70
2023-03-10T10:35:39.464Z,25.25
2023-03-10T10:38:21.949Z,21.67
2023-03-10T10:41:05.088Z,19.30
2023-03-10T10:43:44.785Z,20.15
2023-03-10T10:46:18.117Z,21.20
2023-03-10T10:48:51.973Z,27.45
2023-03-10T10:51:29.176Z,30.60
2023-03-10T10:54:00.987Z,51.08
2023-03-10T10:56:35.214Z,42.75
2023-03-10T10:59:09.685Z,46.55
2023-03-10T11:01:52.689Z,40.22
2023-03-10T11:04:24.746Z,28.05
2023-03-10T11:06:57.538Z,31.30
2023-03-10T11:09:28.343Z,37.25
2023-03-10T11:12:08.576Z,30.00
2023-03-10T11:14:52.681Z,30.73
2023-03-10T11:17:29.825Z,36.33
2023-03-10T11:20:10.122Z,29.73
2023-03-10T11:22:45.419Z,22.45
2023-03-10T11:25:26.635Z,27.75
2023-03-10T11:28:20.680Z,29.58
2023-03-10T11:31:01.438Z,32.88
2023-03-10T11:33:40.326Z,30.58
2023-03-10T11:36:22.576Z,28.95
2023-03-10T11:39:00.032Z,26.92
2023-03-10T11:41:36.174Z,27.02
2023-03-10T11:44:18.692Z,23.75
2023-03-10T11:46:59.649Z,27.95
2023-03-10T11:49:38.771Z,27.23
2023-03-10T11:52:15.503Z,22.35
2023-03-10T11:54:50.805Z,31.30
2023-03-10T11:57:23.552Z,33.53
2023-03-10T12:00:00.842Z,32.60
2023-03-10T12:02:36.946Z,29.80
2023-03-10T12:05:13.768Z,32.83
2023-03-10T12:07:47.386Z,32.72
2023-03-10T12:10:21.519Z,29.80
2023-03-10T12:12:54.212Z,30.75
2023-03-10T12:15:34.059Z,34.05
2023-03-10T12:18:07.258Z,34.65
2023-03-10T12:20:39.028Z,40.17
2023-03-10T12:23:34.461Z,39.33
2023-03-10T12:26:05.616Z,34.15
2023-03-10T12:31:11.600Z,45.28
2023-03-10T12:33:58.172Z,49.50
2023-03-10T12:36:40.433Z,40.75
2023-03-10T12:39:38.741Z,51.10
2023-03-10T12:42:31.619Z,102.57
2023-03-10T12:45:28.708Z,53.03
2023-03-10T12:48:07.798Z,39.15
2023-03-10T12:50:49.681Z,44.35
2023-03-10T12:53:31.657Z,41.88
2023-03-10T12:56:22.596Z,41.10
2023-03-10T12:59:00.540Z,43.15
2023-03-10T13:01:40.566Z,40.67
2023-03-10T13:04:20.041Z,41.53
2023-03-10T13:06:52.206Z,56.72
2023-03-10T13:09:29.496Z,61.38
2023-03-10T13:12:03.418Z,54.42
2023-03-10T13:14:40.309Z,56.60
2023-03-10T13:17:23.112Z,61.28
2023-03-10T13:20:08.715Z,57.05
2023-03-10T13:22:39.588Z,56.50
2023-03-10T13:25:16.373Z,53.88
2023-03-10T13:27:47.438Z,52.90
2023-03-10T13:30:22.136Z,56.78
2023-03-10T13:32:57.703Z,55.20
2023-03-10T13:35:36.165Z,54.20
2023-03-10T13:38:09.221Z,50.53
2023-03-10T13:40:42.677Z,53.35
2023-03-10T13:43:34.157Z,57.80
2023-03-10T13:46:09.869Z,56.67
2023-03-10T13:48:42.738Z,61.90
2023-03-10T13:51:24.736Z,73.60
2023-03-10T13:53:58.882Z,77.10
2023-03-10T13:56:32.531Z,95.40
2023-03-10T13:59:04.627Z,68.15
2023-03-10T14:01:39.075Z,70.00
2023-03-10T14:04:11.529Z,83.22
2023-03-10T14:06:45.353Z,85.15
2023-03-10T14:09:18.627Z,67.22
2023-03-10T14:11:50.265Z,74.10
2023-03-10T14:14:31.336Z,63.92
2023-03-10T14:17:04.318Z,62.25
2023-03-10T14:19:48.633Z,70.32
2023-03-10T14:22:46.412Z,84.93
2023-03-10T14:25:20.304Z,79.22
2023-03-10T14:27:58.051Z,76.60
2023-03-10T14:30:30.979Z,75.22
2023-03-10T14:33:03.507Z,91.63
2023-03-10T14:35:34.257Z,102.95
2023-03-10T14:38:07.986Z,107.00
2023-03-10T14:40:43.733Z,92.25
2023-03-10T14:43:18.715Z,72.95
2023-03-10T14:45:51.512Z,71.55
2023-03-10T14:48:26.423Z,71.38
2023-03-10T14:50:57.600Z,82.20
2023-03-10T14:53:32.131Z,74.82
2023-03-10T14:56:04.856Z,109.57
2023-03-10T14:58:40.103Z,153.65
2023-03-10T15:01:10.883Z,125.60
2023-03-10T15:03:42.015Z,99.65
2023-03-10T15:06:15.029Z,86.40
2023-03-10T15:08:48.900Z,82.88
2023-03-10T15:11:35.733Z,121.45
2023-03-10T15:14:13.454Z,96.18
2023-03-10T15:16:44.607Z,106.60
2023-03-10T15:19:21.236Z,97.13
2023-03-10T15:21:52.129Z,113.63
2023-03-10T15:24:25.917Z,104.10
2023-03-10T15:26:57.104Z,130.88
2023-03-10T15:29:28.222Z,263.02
2023-03-10T15:34:29.952Z,160.20
2023-03-10T15:37:01.302Z,154.60
2023-03-10T15:39:37.103Z,139.38
2023-03-10T15:42:08.336Z,121.65
2023-03-10T15:44:40.154Z,122.45
2023-03-10T15:47:11.099Z,115.68
2023-03-10T15:49:42.736Z,102.15
2023-03-10T15:52:16.910Z,155.57
2023-03-10T15:54:50.683Z,125.72
2023-03-10T15:57:21.492Z,102.93
2023-03-10T15:59:53.708Z,113.03
2023-03-10T16:02:24.470Z,131.73
2023-03-10T16:04:55.949Z,145.05
2023-03-10T16:07:27.700Z,131.38
2023-03-10T16:10:01.473Z,122.97
2023-03-10T16:12:32.644Z,126.20
2023-03-10T16:15:03.774Z,117.50
2023-03-10T16:17:35.495Z,107.93
2023-03-10T16:20:12.298Z,112.75
2023-03-10T16:22:44.505Z,100.05
2023-03-10T16:25:19.682Z,128.95
2023-03-10T16:27:50.601Z,112.25
2023-03-10T16:30:22.924Z,122.88
2023-03-10T16:32:54.307Z,127.07
2023-03-10T16:35:25.649Z,138.27
2023-03-10T16:37:57.394Z,118.32
2023-03-10T16:40:31.396Z,104.03
2023-03-10T16:43:02.142Z,91.50
2023-03-10T16:45:33.503Z,97.93
2023-03-10T16:48:04.326Z,102.75
2023-03-10T16:50:36.564Z,116.60
2023-03-10T16:53:08.789Z,123.53
2023-03-10T16:55:42.816Z,125.30
2023-03-10T16:58:14.136Z,121.93
2023-03-10T17:00:45.303Z,180.10
2023-03-10T17:03:16.281Z,210.52
2023-03-10T17:05:49.208Z,192.00
2023-03-10T17:08:20.053Z,168.02
2023-03-10T17:10:53.726Z,154.75
2023-03-10T17:13:24.649Z,166.40
2023-03-10T17:15:55.726Z,164.45
2023-03-10T17:18:26.580Z,305.85
2023-03-10T17:20:57.678Z,387.65
2023-03-10T17:23:28.653Z,291.88
2023-03-10T17:26:03.041Z,243.95
2023-03-10T17:28:34.037Z,345.75
2023-03-10T17:31:09.253Z,364.60
2023-03-10T17:33:40.983Z,467.95
2023-03-10T17:36:15.285Z,366.55
2023-03-10T17:38:46.937Z,296.20
2023-03-10T17:41:20.780Z,231.95
2023-03-10T17:43:52.267Z,269.58
2023-03-10T17:46:25.221Z,223.95
2023-03-10T17:48:57.379Z,224.68
2023-03-10T17:51:33.481Z,188.77
2023-03-10T17:54:04.960Z,179.00
2023-03-10T17:56:39.140Z,185.23
2023-03-10T17:59:10.166Z,170.90
2023-03-10T18:01:41.696Z,171.15
2023-03-10T18:04:13.863Z,148.30
2023-03-10T18:06:45.891Z,128.70
2023-03-10T18:09:18.556Z,111.25
2023-03-10T18:11:52.881Z,103.18
2023-03-10T18:14:23.719Z,104.47
2023-03-10T18:16:55.444Z,108.30
2023-03-10T18:19:26.520Z,132.93
2023-03-10T18:21:58.636Z,122.47
2023-03-10T18:24:29.882Z,117.35
2023-03-10T18:27:04.620Z,98.03
2023-03-10T18:29:35.436Z,97.38
2023-03-10T18:32:06.852Z,82.40
2023-03-10T18:34:37.647Z,82.45
2023-03-10T18:37:08.879Z,66.70
2023-03-10T18:42:16.137Z,185.15
2023-03-10T18:44:49.230Z,126.28
2023-03-10T18:47:20.418Z,203.85
2023-03-10T18:52:22.836Z,165.40
2023-03-10T18:54:53.740Z,131.15
2023-03-10T18:57:27.431Z,134.85
2023-03-10T19:00:00.733Z,141.98
2023-03-10T19:02:32.256Z,253.35
2023-03-10T19:07:37.369Z,244.63
2023-03-10T19:10:09.247Z,223.73
2023-03-10T19:12:43.768Z,199.50
2023-03-10T19:15:16.245Z,214.13
2023-03-10T19:17:47.426Z,252.32
2023-03-10T19:20:20.373Z,223.57
2023-03-10T19:22:53.038Z,179.23
2023-03-10T19:25:24.545Z,212.13
2023-03-10T19:27:58.338Z,175.50
2023-03-10T19:30:29.324Z,279.45
2023-03-10T19:33:00.469Z,155.05
2023-03-10T19:35:33.788Z,243.00
2023-03-10T19:38:05.747Z,178.05
2023-03-10T19:40:37.095Z,156.93
2023-03-10T19:43:10.807Z,134.18
2023-03-10T19:45:41.639Z,197.02
2023-03-10T19:48:12.783Z,100.63
2023-03-10T19:50:43.535Z,102.22
2023-03-10T19:53:14.783Z,174.63
2023-03-10T19:58:19.265Z,118.72
2023-03-10T20:00:50.476Z,87.18
2023-03-10T20:03:23.412Z,81.60
2023-03-10T20:05:54.954Z,73.72
2023-03-10T20:08:26.816Z,74.40
2023-03-10T20:11:02.490Z,81.18
2023-03-10T20:13:36.838Z,82.70
2023-03-10T20:16:08.530Z,83.63
2023-03-10T20:18:39.811Z,79.47
2023-03-10T20:23:47.672Z,87.72
2023-03-10T20:26:19.309Z,90.63
2023-03-10T20:28:53.616Z,92.68
2023-03-10T20:31:26.415Z,93.15
2023-03-10T20:33:57.745Z,94.28
2023-03-10T20:38:59.697Z,129.52
2023-03-10T20:41:34.755Z,136.85
2023-03-10T20:44:14.296Z,112.50
2023-03-10T20:46:46.641Z,127.57
2023-03-10T20:49:18.672Z,113.07
2023-03-10T20:51:49.559Z,107.90
2023-03-10T20:54:20.998Z,120.25
2023-03-10T20:59:26.027Z,121.13
2023-03-10T21:01:58.826Z,126.95
2023-03-10T21:04:30.486Z,117.68
2023-03-10T21:07:01.582Z,139.05
2023-03-10T21:09:33.001Z,139.77
2023-03-10T21:14:39.976Z,116.00
2023-03-10T21:17:10.921Z,106.50
2023-03-10T21:19:42.085Z,107.55
2023-03-10T21:22:13.212Z,108.55
2023-03-10T21:24:44.263Z,115.70
2023-03-10T21:27:15.762Z,108.03
2023-03-10T21:29:49.923Z,110.72
2023-03-10T21:32:20.756Z,106.60
2023-03-10T21:34:52.177Z,88.15
2023-03-10T21:37:23.700Z,99.97
2023-03-10T21:39:55.451Z,89.15
2023-03-10T21:42:31.366Z,87.70
2023-03-10T21:45:07.058Z,90.35
2023-03-10T21:47:38.088Z,111.18
2023-03-10T21:50:11.492Z,94.00
2023-03-10T21:52:42.467Z,93.45
2023-03-10T21:55:20.473Z,122.13
2023-03-10T21:57:51.451Z,109.68
2023-03-10T22:00:25.975Z,113.15
2023-03-10T22:02:59.905Z,115.78
2023-03-10T22:05:31.905Z,106.75
2023-03-10T22:08:03.301Z,126.15
2023-03-10T22:10:35.062Z,96.90
2023-03-10T22:13:05.974Z,102.05
2023-03-10T22:15:39.739Z,90.45
2023-03-10T22:18:11.011Z,102.43
2023-03-10T22:20:42.270Z,109.55
2023-03-10T22:25:44.302Z,100.70
2023-03-10T22:28:15.036Z,99.55
2023-03-10T22:30:48.687Z,97.03
2023-03-10T22:33:19.433Z,93.63
2023-03-10T22:35:52.428Z,96.35
2023-03-10T22:38:23.774Z,94.30
2023-03-10T22:40:54.902Z,104.25
2023-03-10T22:43:25.643Z,105.78
2023-03-10T22:46:00.101Z,88.78
2023-03-10T22:48:31.811Z,99.93
2023-03-10T22:51:03.383Z,91.00
2023-03-10T22:53:35.327Z,104.30
2023-03-10T22:56:08.523Z,91.63
2023-03-10T22:58:39.703Z,96.85
2023-03-10T23:01:13.589Z,95.47
2023-03-10T23:03:45.486Z,98.25
2023-03-10T23:06:17.116Z,101.93
2023-03-10T23:08:48.818Z,103.05
2023-03-10T23:11:20.503Z,90.50
2023-03-10T23:13:51.780Z,90.30
2023-03-10T23:16:25.831Z,92.43
2023-03-10T23:18:56.778Z,96.95
2023-03-10T23:21:28.013Z,109.55
2023-03-10T23:26:31.618Z,102.10
2023-03-10T23:29:03.004Z,120.72
2023-03-10T23:31:37.150Z,102.70
2023-03-10T23:34:08.056Z,100.05
2023-03-10T23:36:40.241Z,91.00
2023-03-10T23:39:13.729Z,102.43
2023-03-10T23:41:45.743Z,89.53
2023-03-10T23:44:16.951Z,97.50
2023-03-10T23:46:53.991Z,100.80
2023-03-10T23:49:25.248Z,87.97
2023-03-10T23:51:56.721Z,87.07
2023-03-10T23:54:28.454Z,95.95
2023-03-10T23:56:59.855Z,108.13
2023-03-10T23:59:31.053Z,92.43
